sensor_id;sensor_type;location;lat;lon;timestamp;P1;durP1;ratioP1;P2;durP2;ratioP2
37425;SDS011;23285;50.180;7.036;2022-10-23T00:01:19;3.00;;;1.40;;
37425;SDS011;23285;50.180;7.036;2022-10-23T00:04:09;3.30;;;1.50;;
37425;SDS011;23285;50.180;7.036;2022-10-23T00:06:59;1.30;;;1.20;;
37425;SDS011;23285;50.180;7.036;2022-10-23T00:09:44;4.80;;;1.40;;
37425;SDS011;23285;50.180;7.036;2022-10-23T00:12:29;2.07;;;1.50;;
37425;SDS011;23285;50.180;7.036;2022-10-23T00:15:15;2.80;;;1.43;;
37425;SDS011;23285;50.180;7.036;2022-10-23T00:18:01;1.90;;;1.60;;
37425;SDS011;23285;50.180;7.036;2022-10-23T00:20:46;4.80;;;1.50;;
37425;SDS011;23285;50.180;7.036;2022-10-23T00:23:31;2.90;;;1.50;;
37425;SDS011;23285;50.180;7.036;2022-10-23T00:26:17;6.30;;;1.90;;
37425;SDS011;23285;50.180;7.036;2022-10-23T00:29:03;8.70;;;1.77;;
37425;SDS011;23285;50.180;7.036;2022-10-23T00:31:48;1.77;;;1.53;;
37425;SDS011;23285;50.180;7.036;2022-10-23T00:34:35;4.10;;;1.83;;
37425;SDS011;23285;50.180;7.036;2022-10-23T00:37:20;2.17;;;1.60;;
37425;SDS011;23285;50.180;7.036;2022-10-23T00:40:06;1.93;;;1.60;;
37425;SDS011;23285;50.180;7.036;2022-10-23T00:42:52;3.47;;;1.60;;
37425;SDS011;23285;50.180;7.036;2022-10-23T00:45:37;2.33;;;1.20;;
37425;SDS011;23285;50.180;7.036;2022-10-23T00:48:23;1.77;;;1.57;;
37425;SDS011;23285;50.180;7.036;2022-10-23T00:51:10;2.70;;;1.70;;
37425;SDS011;23285;50.180;7.036;2022-10-23T00:53:56;1.60;;;1.50;;
37425;SDS011;23285;50.180;7.036;2022-10-23T00:56:43;3.40;;;1.50;;
37425;SDS011;23285;50.180;7.036;2022-10-23T00:59:29;3.10;;;1.60;;
37425;SDS011;23285;50.180;7.036;2022-10-23T01:02:15;1.90;;;1.60;;
37425;SDS011;23285;50.180;7.036;2022-10-23T01:05:00;2.67;;;1.70;;
37425;SDS011;23285;50.180;7.036;2022-10-23T01:10:51;1.90;;;1.67;;
37425;SDS011;23285;50.180;7.036;2022-10-23T01:28:58;2.10;;;1.70;;
37425;SDS011;23285;50.180;7.036;2022-10-23T01:37:31;7.57;;;2.10;;
37425;SDS011;23285;50.180;7.036;2022-10-23T01:40:33;1.67;;;1.57;;
37425;SDS011;23285;50.180;7.036;2022-10-23T01:43:23;1.80;;;1.67;;
37425;SDS011;23285;50.180;7.036;2022-10-23T01:46:14;3.50;;;1.93;;
37425;SDS011;23285;50.180;7.036;2022-10-23T01:49:00;4.20;;;2.23;;
37425;SDS011;23285;50.180;7.036;2022-10-23T01:51:51;2.53;;;1.70;;
37425;SDS011;23285;50.180;7.036;2022-10-23T01:54:38;3.03;;;1.80;;
37425;SDS011;23285;50.180;7.036;2022-10-23T01:57:24;5.17;;;1.87;;
37425;SDS011;23285;50.180;7.036;2022-10-23T02:00:14;3.00;;;2.07;;
37425;SDS011;23285;50.180;7.036;2022-10-23T02:03:10;2.00;;;1.80;;
37425;SDS011;23285;50.180;7.036;2022-10-23T02:05:56;3.10;;;1.60;;
37425;SDS011;23285;50.180;7.036;2022-10-23T02:08:42;1.77;;;1.57;;
37425;SDS011;23285;50.180;7.036;2022-10-23T02:11:27;2.73;;;1.70;;
37425;SDS011;23285;50.180;7.036;2022-10-23T02:14:19;1.60;;;1.50;;
37425;SDS011;23285;50.180;7.036;2022-10-23T02:17:08;1.50;;;1.40;;
37425;SDS011;23285;50.180;7.036;2022-10-23T02:22:56;1.70;;;1.40;;
37425;SDS011;23285;50.180;7.036;2022-10-23T02:25:50;4.67;;;1.73;;
37425;SDS011;23285;50.180;7.036;2022-10-23T02:28:40;3.07;;;1.60;;
37425;SDS011;23285;50.180;7.036;2022-10-23T02:31:29;3.67;;;1.70;;
37425;SDS011;23285;50.180;7.036;2022-10-23T02:34:15;2.03;;;1.50;;
37425;SDS011;23285;50.180;7.036;2022-10-23T02:37:00;4.67;;;1.73;;
37425;SDS011;23285;50.180;7.036;2022-10-23T02:39:46;3.50;;;1.50;;
37425;SDS011;23285;50.180;7.036;2022-10-23T02:45:46;2.00;;;1.80;;
37425;SDS011;23285;50.180;7.036;2022-10-23T02:48:40;1.80;;;1.60;;
37425;SDS011;23285;50.180;7.036;2022-10-23T02:51:33;3.90;;;1.70;;
37425;SDS011;23285;50.180;7.036;2022-10-23T02:54:27;2.50;;;1.43;;
37425;SDS011;23285;50.180;7.036;2022-10-23T02:57:22;1.83;;;1.60;;
37425;SDS011;23285;50.180;7.036;2022-10-23T03:00:21;1.70;;;1.60;;
37425;SDS011;23285;50.180;7.036;2022-10-23T03:03:12;2.20;;;1.30;;
37425;SDS011;23285;50.180;7.036;2022-10-23T03:06:01;2.00;;;1.60;;
37425;SDS011;23285;50.180;7.036;2022-10-23T03:08:54;1.77;;;1.60;;
37425;SDS011;23285;50.180;7.036;2022-10-23T03:11:43;2.50;;;1.63;;
37425;SDS011;23285;50.180;7.036;2022-10-23T03:14:28;2.67;;;1.90;;
37425;SDS011;23285;50.180;7.036;2022-10-23T03:17:13;3.27;;;1.73;;
37425;SDS011;23285;50.180;7.036;2022-10-23T03:19:59;1.70;;;1.60;;
37425;SDS011;23285;50.180;7.036;2022-10-23T03:22:44;3.10;;;1.97;;
37425;SDS011;23285;50.180;7.036;2022-10-23T03:25:29;2.60;;;2.10;;
37425;SDS011;23285;50.180;7.036;2022-10-23T03:28:16;3.23;;;2.07;;
37425;SDS011;23285;50.180;7.036;2022-10-23T03:31:01;2.23;;;1.67;;
37425;SDS011;23285;50.180;7.036;2022-10-23T03:33:47;4.43;;;2.10;;
37425;SDS011;23285;50.180;7.036;2022-10-23T03:36:32;2.60;;;1.80;;
37425;SDS011;23285;50.180;7.036;2022-10-23T03:39:17;4.17;;;2.00;;
37425;SDS011;23285;50.180;7.036;2022-10-23T03:42:02;2.60;;;2.00;;
37425;SDS011;23285;50.180;7.036;2022-10-23T03:44:48;4.90;;;2.37;;
37425;SDS011;23285;50.180;7.036;2022-10-23T03:47:33;2.00;;;1.80;;
37425;SDS011;23285;50.180;7.036;2022-10-23T03:50:18;5.13;;;1.93;;
37425;SDS011;23285;50.180;7.036;2022-10-23T03:53:04;4.53;;;1.80;;
37425;SDS011;23285;50.180;7.036;2022-10-23T03:55:51;2.10;;;1.90;;
37425;SDS011;23285;50.180;7.036;2022-10-23T03:58:37;7.83;;;2.43;;
37425;SDS011;23285;50.180;7.036;2022-10-23T04:01:22;5.23;;;2.10;;
37425;SDS011;23285;50.180;7.036;2022-10-23T04:04:07;5.80;;;2.50;;
37425;SDS011;23285;50.180;7.036;2022-10-23T04:06:53;4.73;;;2.50;;
37425;SDS011;23285;50.180;7.036;2022-10-23T04:09:38;4.40;;;1.80;;
37425;SDS011;23285;50.180;7.036;2022-10-23T04:12:23;3.57;;;1.90;;
37425;SDS011;23285;50.180;7.036;2022-10-23T04:15:09;4.13;;;1.80;;
37425;SDS011;23285;50.180;7.036;2022-10-23T04:17:54;2.07;;;1.70;;
37425;SDS011;23285;50.180;7.036;2022-10-23T04:20:39;2.03;;;1.53;;
37425;SDS011;23285;50.180;7.036;2022-10-23T04:23:25;1.83;;;1.53;;
37425;SDS011;23285;50.180;7.036;2022-10-23T04:26:11;2.70;;;1.70;;
37425;SDS011;23285;50.180;7.036;2022-10-23T04:28:56;5.33;;;1.60;;
37425;SDS011;23285;50.180;7.036;2022-10-23T04:31:41;2.37;;;2.00;;
37425;SDS011;23285;50.180;7.036;2022-10-23T04:34:27;3.67;;;1.90;;
37425;SDS011;23285;50.180;7.036;2022-10-23T04:37:13;2.17;;;1.67;;
37425;SDS011;23285;50.180;7.036;2022-10-23T04:39:58;2.03;;;1.60;;
37425;SDS011;23285;50.180;7.036;2022-10-23T04:42:43;2.23;;;1.50;;
37425;SDS011;23285;50.180;7.036;2022-10-23T04:45:29;1.57;;;1.40;;
37425;SDS011;23285;50.180;7.036;2022-10-23T04:48:14;3.50;;;1.60;;
37425;SDS011;23285;50.180;7.036;2022-10-23T04:51:31;2.30;;;1.70;;
37425;SDS011;23285;50.180;7.036;2022-10-23T04:54:23;2.87;;;1.80;;
37425;SDS011;23285;50.180;7.036;2022-10-23T04:57:27;2.70;;;1.47;;
37425;SDS011;23285;50.180;7.036;2022-10-23T05:00:24;2.60;;;1.70;;
37425;SDS011;23285;50.180;7.036;2022-10-23T05:03:12;1.90;;;1.57;;
37425;SDS011;23285;50.180;7.036;2022-10-23T05:06:00;1.93;;;1.57;;
37425;SDS011;23285;50.180;7.036;2022-10-23T05:09:08;1.63;;;1.53;;
37425;SDS011;23285;50.180;7.036;2022-10-23T05:12:01;4.17;;;1.73;;
37425;SDS011;23285;50.180;7.036;2022-10-23T05:14:45;2.10;;;1.57;;
37425;SDS011;23285;50.180;7.036;2022-10-23T05:17:31;2.87;;;1.43;;
37425;SDS011;23285;50.180;7.036;2022-10-23T05:20:20;4.77;;;2.30;;
37425;SDS011;23285;50.180;7.036;2022-10-23T05:23:08;2.33;;;1.77;;
37425;SDS011;23285;50.180;7.036;2022-10-23T05:25:56;4.13;;;1.53;;
37425;SDS011;23285;50.180;7.036;2022-10-23T05:28:41;5.83;;;1.90;;
37425;SDS011;23285;50.180;7.036;2022-10-23T05:31:31;1.70;;;1.60;;
37425;SDS011;23285;50.180;7.036;2022-10-23T05:34:23;3.70;;;1.90;;
37425;SDS011;23285;50.180;7.036;2022-10-23T05:37:11;2.73;;;1.87;;
37425;SDS011;23285;50.180;7.036;2022-10-23T05:39:59;2.03;;;1.60;;
37425;SDS011;23285;50.180;7.036;2022-10-23T05:42:44;2.03;;;1.73;;
37425;SDS011;23285;50.180;7.036;2022-10-23T05:45:33;3.13;;;2.10;;
37425;SDS011;23285;50.180;7.036;2022-10-23T05:48:50;6.13;;;1.90;;
37425;SDS011;23285;50.180;7.036;2022-10-23T05:51:55;4.40;;;1.57;;
37425;SDS011;23285;50.180;7.036;2022-10-23T05:55:09;2.13;;;1.70;;
37425;SDS011;23285;50.180;7.036;2022-10-23T05:58:06;3.30;;;1.80;;
37425;SDS011;23285;50.180;7.036;2022-10-23T06:01:11;4.00;;;1.70;;
37425;SDS011;23285;50.180;7.036;2022-10-23T06:04:11;3.77;;;1.63;;
37425;SDS011;23285;50.180;7.036;2022-10-23T06:07:10;3.43;;;1.83;;
37425;SDS011;23285;50.180;7.036;2022-10-23T06:09:55;3.83;;;1.87;;
37425;SDS011;23285;50.180;7.036;2022-10-23T06:12:41;4.27;;;1.80;;
37425;SDS011;23285;50.180;7.036;2022-10-23T06:15:31;5.73;;;1.80;;
37425;SDS011;23285;50.180;7.036;2022-10-23T06:18:30;2.63;;;1.97;;
37425;SDS011;23285;50.180;7.036;2022-10-23T06:21:22;5.07;;;2.07;;
37425;SDS011;23285;50.180;7.036;2022-10-23T06:24:08;3.33;;;1.90;;
37425;SDS011;23285;50.180;7.036;2022-10-23T06:27:22;3.17;;;2.30;;
37425;SDS011;23285;50.180;7.036;2022-10-23T06:30:08;5.30;;;1.73;;
37425;SDS011;23285;50.180;7.036;2022-10-23T06:32:53;7.87;;;2.57;;
37425;SDS011;23285;50.180;7.036;2022-10-23T06:35:38;5.30;;;2.17;;
37425;SDS011;23285;50.180;7.036;2022-10-23T06:38:24;8.67;;;2.30;;
37425;SDS011;23285;50.180;7.036;2022-10-23T06:41:13;3.67;;;1.93;;
37425;SDS011;23285;50.180;7.036;2022-10-23T06:44:11;2.93;;;1.90;;
37425;SDS011;23285;50.180;7.036;2022-10-23T06:47:04;8.57;;;2.17;;
37425;SDS011;23285;50.180;7.036;2022-10-23T06:50:18;4.13;;;2.00;;
37425;SDS011;23285;50.180;7.036;2022-10-23T06:53:04;6.80;;;2.23;;
37425;SDS011;23285;50.180;7.036;2022-10-23T06:55:51;4.47;;;2.27;;
37425;SDS011;23285;50.180;7.036;2022-10-23T06:58:38;4.10;;;2.03;;
37425;SDS011;23285;50.180;7.036;2022-10-23T07:01:30;5.47;;;2.17;;
37425;SDS011;23285;50.180;7.036;2022-10-23T07:04:16;6.37;;;1.97;;
37425;SDS011;23285;50.180;7.036;2022-10-23T07:07:02;9.47;;;2.43;;
37425;SDS011;23285;50.180;7.036;2022-10-23T07:09:56;4.77;;;2.33;;
37425;SDS011;23285;50.180;7.036;2022-10-23T07:13:00;4.80;;;2.00;;
37425;SDS011;23285;50.180;7.036;2022-10-23T07:16:14;3.33;;;1.93;;
37425;SDS011;23285;50.180;7.036;2022-10-23T07:19:04;4.43;;;1.83;;
37425;SDS011;23285;50.180;7.036;2022-10-23T07:22:08;4.03;;;2.00;;
37425;SDS011;23285;50.180;7.036;2022-10-23T07:24:53;2.93;;;2.03;;
37425;SDS011;23285;50.180;7.036;2022-10-23T07:27:45;2.30;;;1.97;;
37425;SDS011;23285;50.180;7.036;2022-10-23T07:30:31;6.00;;;1.80;;
37425;SDS011;23285;50.180;7.036;2022-10-23T07:33:19;4.37;;;2.00;;
37425;SDS011;23285;50.180;7.036;2022-10-23T07:36:15;4.07;;;1.97;;
37425;SDS011;23285;50.180;7.036;2022-10-23T07:39:01;4.03;;;2.20;;
37425;SDS011;23285;50.180;7.036;2022-10-23T07:41:48;5.13;;;3.50;;
37425;SDS011;23285;50.180;7.036;2022-10-23T07:44:35;9.57;;;2.00;;
37425;SDS011;23285;50.180;7.036;2022-10-23T07:47:20;4.50;;;1.90;;
37425;SDS011;23285;50.180;7.036;2022-10-23T07:50:08;7.53;;;2.17;;
37425;SDS011;23285;50.180;7.036;2022-10-23T07:52:53;4.30;;;1.53;;
37425;SDS011;23285;50.180;7.036;2022-10-23T07:55:55;8.40;;;2.40;;
37425;SDS011;23285;50.180;7.036;2022-10-23T07:58:42;3.23;;;1.60;;
37425;SDS011;23285;50.180;7.036;2022-10-23T08:01:36;4.77;;;1.90;;
37425;SDS011;23285;50.180;7.036;2022-10-23T08:04:22;4.67;;;2.00;;
37425;SDS011;23285;50.180;7.036;2022-10-23T08:07:18;5.60;;;2.47;;
37425;SDS011;23285;50.180;7.036;2022-10-23T08:10:05;6.27;;;2.00;;
37425;SDS011;23285;50.180;7.036;2022-10-23T08:12:51;4.23;;;1.90;;
37425;SDS011;23285;50.180;7.036;2022-10-23T08:15:42;4.83;;;2.00;;
37425;SDS011;23285;50.180;7.036;2022-10-23T08:18:50;5.87;;;2.40;;
37425;SDS011;23285;50.180;7.036;2022-10-23T08:21:37;3.90;;;1.87;;
37425;SDS011;23285;50.180;7.036;2022-10-23T08:24:22;7.07;;;2.20;;
37425;SDS011;23285;50.180;7.036;2022-10-23T08:27:07;4.87;;;2.20;;
37425;SDS011;23285;50.180;7.036;2022-10-23T08:29:59;3.57;;;1.73;;
37425;SDS011;23285;50.180;7.036;2022-10-23T08:32:45;7.43;;;2.10;;
37425;SDS011;23285;50.180;7.036;2022-10-23T08:35:35;4.90;;;2.43;;
37425;SDS011;23285;50.180;7.036;2022-10-23T08:38:20;3.93;;;2.20;;
37425;SDS011;23285;50.180;7.036;2022-10-23T08:41:12;16.57;;;8.57;;
37425;SDS011;23285;50.180;7.036;2022-10-23T08:47:22;4.97;;;2.70;;
37425;SDS011;23285;50.180;7.036;2022-10-23T08:50:40;3.53;;;2.27;;
37425;SDS011;23285;50.180;7.036;2022-10-23T08:53:30;7.03;;;3.97;;
37425;SDS011;23285;50.180;7.036;2022-10-23T08:56:25;2.63;;;2.27;;
37425;SDS011;23285;50.180;7.036;2022-10-23T09:02:17;6.03;;;2.80;;
37425;SDS011;23285;50.180;7.036;2022-10-23T09:05:22;3.43;;;2.30;;
37425;SDS011;23285;50.180;7.036;2022-10-23T09:11:33;2.23;;;1.67;;
37425;SDS011;23285;50.180;7.036;2022-10-23T09:20:22;2.87;;;1.73;;
37425;SDS011;23285;50.180;7.036;2022-10-23T09:23:14;5.43;;;1.90;;
37425;SDS011;23285;50.180;7.036;2022-10-23T09:26:03;4.77;;;2.00;;
37425;SDS011;23285;50.180;7.036;2022-10-23T09:29:00;3.87;;;1.77;;
37425;SDS011;23285;50.180;7.036;2022-10-23T09:31:58;3.23;;;1.67;;
37425;SDS011;23285;50.180;7.036;2022-10-23T09:34:49;2.50;;;1.57;;
37425;SDS011;23285;50.180;7.036;2022-10-23T09:37:43;6.23;;;1.90;;
37425;SDS011;23285;50.180;7.036;2022-10-23T09:40:42;3.40;;;2.20;;
37425;SDS011;23285;50.180;7.036;2022-10-23T09:43:27;3.27;;;1.93;;
37425;SDS011;23285;50.180;7.036;2022-10-23T09:46:19;4.00;;;2.20;;
37425;SDS011;23285;50.180;7.036;2022-10-23T09:49:04;3.03;;;1.57;;
37425;SDS011;23285;50.180;7.036;2022-10-23T09:52:36;4.30;;;2.07;;
37425;SDS011;23285;50.180;7.036;2022-10-23T09:54:57;3.87;;;1.70;;
37425;SDS011;23285;50.180;7.036;2022-10-23T09:57:44;6.50;;;2.10;;
37425;SDS011;23285;50.180;7.036;2022-10-23T10:00:32;4.10;;;2.20;;
37425;SDS011;23285;50.180;7.036;2022-10-23T10:03:20;3.20;;;1.90;;
37425;SDS011;23285;50.180;7.036;2022-10-23T10:06:23;4.83;;;1.87;;
37425;SDS011;23285;50.180;7.036;2022-10-23T10:09:12;1.70;;;1.60;;
37425;SDS011;23285;50.180;7.036;2022-10-23T10:12:18;3.77;;;1.90;;
37425;SDS011;23285;50.180;7.036;2022-10-23T10:18:20;6.87;;;2.20;;
37425;SDS011;23285;50.180;7.036;2022-10-23T10:24:24;7.37;;;2.27;;
37425;SDS011;23285;50.180;7.036;2022-10-23T10:27:40;4.43;;;2.00;;
37425;SDS011;23285;50.180;7.036;2022-10-23T10:46:54;4.30;;;2.13;;
37425;SDS011;23285;50.180;7.036;2022-10-23T10:49:51;4.43;;;2.30;;
37425;SDS011;23285;50.180;7.036;2022-10-23T10:56:01;7.47;;;2.40;;
37425;SDS011;23285;50.180;7.036;2022-10-23T10:58:53;11.60;;;4.40;;
37425;SDS011;23285;50.180;7.036;2022-10-23T11:01:46;8.13;;;2.10;;
37425;SDS011;23285;50.180;7.036;2022-10-23T11:04:56;2.23;;;1.73;;
37425;SDS011;23285;50.180;7.036;2022-10-23T11:07:54;5.80;;;2.13;;
37425;SDS011;23285;50.180;7.036;2022-10-23T11:11:20;6.80;;;2.30;;
37425;SDS011;23285;50.180;7.036;2022-10-23T11:14:03;3.70;;;2.03;;
37425;SDS011;23285;50.180;7.036;2022-10-23T11:16:49;3.47;;;1.60;;
37425;SDS011;23285;50.180;7.036;2022-10-23T11:19:39;5.67;;;1.80;;
37425;SDS011;23285;50.180;7.036;2022-10-23T11:22:29;3.97;;;1.90;;
37425;SDS011;23285;50.180;7.036;2022-10-23T11:35:25;3.70;;;2.00;;
37425;SDS011;23285;50.180;7.036;2022-10-23T11:38:16;4.33;;;2.00;;
37425;SDS011;23285;50.180;7.036;2022-10-23T11:44:21;9.30;;;2.47;;
37425;SDS011;23285;50.180;7.036;2022-10-23T11:50:23;14.23;;;6.13;;
37425;SDS011;23285;50.180;7.036;2022-10-23T12:05:32;10.50;;;6.63;;
37425;SDS011;23285;50.180;7.036;2022-10-23T12:08:21;8.77;;;3.87;;
37425;SDS011;23285;50.180;7.036;2022-10-23T12:11:23;8.37;;;6.50;;
37425;SDS011;23285;50.180;7.036;2022-10-23T12:14:32;9.83;;;3.00;;
37425;SDS011;23285;50.180;7.036;2022-10-23T12:17:33;10.63;;;2.83;;
37425;SDS011;23285;50.180;7.036;2022-10-23T12:20:28;6.13;;;2.30;;
37425;SDS011;23285;50.180;7.036;2022-10-23T12:26:39;8.80;;;2.53;;
37425;SDS011;23285;50.180;7.036;2022-10-23T12:29:34;3.97;;;2.30;;
37425;SDS011;23285;50.180;7.036;2022-10-23T12:38:52;10.10;;;2.47;;
37425;SDS011;23285;50.180;7.036;2022-10-23T12:41:41;8.40;;;2.37;;
37425;SDS011;23285;50.180;7.036;2022-10-23T12:44:27;4.57;;;1.93;;
37425;SDS011;23285;50.180;7.036;2022-10-23T12:47:15;8.97;;;1.90;;
37425;SDS011;23285;50.180;7.036;2022-10-23T12:50:02;4.53;;;2.10;;
37425;SDS011;23285;50.180;7.036;2022-10-23T12:55:48;15.90;;;8.93;;
37425;SDS011;23285;50.180;7.036;2022-10-23T12:58:55;6.47;;;2.50;;
37425;SDS011;23285;50.180;7.036;2022-10-23T13:01:45;7.67;;;2.73;;
37425;SDS011;23285;50.180;7.036;2022-10-23T13:04:31;8.67;;;3.47;;
37425;SDS011;23285;50.180;7.036;2022-10-23T13:07:18;7.00;;;2.37;;
37425;SDS011;23285;50.180;7.036;2022-10-23T13:10:11;5.20;;;2.40;;
37425;SDS011;23285;50.180;7.036;2022-10-23T13:13:07;7.50;;;2.67;;
37425;SDS011;23285;50.180;7.036;2022-10-23T13:15:55;5.03;;;2.33;;
37425;SDS011;23285;50.180;7.036;2022-10-23T13:18:40;4.67;;;2.27;;
37425;SDS011;23285;50.180;7.036;2022-10-23T13:21:26;3.23;;;1.90;;
37425;SDS011;23285;50.180;7.036;2022-10-23T13:24:17;6.27;;;2.10;;
37425;SDS011;23285;50.180;7.036;2022-10-23T13:27:20;10.77;;;2.47;;
37425;SDS011;23285;50.180;7.036;2022-10-23T13:30:26;5.10;;;2.00;;
37425;SDS011;23285;50.180;7.036;2022-10-23T13:33:30;8.10;;;3.77;;
37425;SDS011;23285;50.180;7.036;2022-10-23T13:41:48;14.07;;;3.17;;
37425;SDS011;23285;50.180;7.036;2022-10-23T13:44:35;8.60;;;2.63;;
37425;SDS011;23285;50.180;7.036;2022-10-23T13:47:20;5.13;;;2.33;;
37425;SDS011;23285;50.180;7.036;2022-10-23T13:50:05;4.50;;;2.50;;
37425;SDS011;23285;50.180;7.036;2022-10-23T13:52:54;12.03;;;3.13;;
37425;SDS011;23285;50.180;7.036;2022-10-23T13:55:41;9.07;;;2.80;;
37425;SDS011;23285;50.180;7.036;2022-10-23T13:58:27;5.63;;;2.70;;
37425;SDS011;23285;50.180;7.036;2022-10-23T14:04:05;7.67;;;2.30;;
37425;SDS011;23285;50.180;7.036;2022-10-23T14:06:51;9.57;;;2.23;;
37425;SDS011;23285;50.180;7.036;2022-10-23T14:09:41;9.30;;;2.40;;
37425;SDS011;23285;50.180;7.036;2022-10-23T14:12:26;8.00;;;2.63;;
37425;SDS011;23285;50.180;7.036;2022-10-23T14:15:11;8.53;;;2.50;;
37425;SDS011;23285;50.180;7.036;2022-10-23T14:17:56;8.20;;;2.60;;
37425;SDS011;23285;50.180;7.036;2022-10-23T14:20:42;7.93;;;2.47;;
37425;SDS011;23285;50.180;7.036;2022-10-23T14:23:27;16.23;;;2.93;;
37425;SDS011;23285;50.180;7.036;2022-10-23T14:26:13;9.60;;;4.93;;
37425;SDS011;23285;50.180;7.036;2022-10-23T14:28:59;9.00;;;2.40;;
37425;SDS011;23285;50.180;7.036;2022-10-23T14:31:43;6.57;;;2.63;;
37425;SDS011;23285;50.180;7.036;2022-10-23T14:34:28;5.73;;;3.43;;
37425;SDS011;23285;50.180;7.036;2022-10-23T14:37:14;7.07;;;2.80;;
37425;SDS011;23285;50.180;7.036;2022-10-23T14:39:59;11.57;;;2.90;;
37425;SDS011;23285;50.180;7.036;2022-10-23T14:42:45;11.27;;;4.13;;
37425;SDS011;23285;50.180;7.036;2022-10-23T14:45:30;5.77;;;2.77;;
37425;SDS011;23285;50.180;7.036;2022-10-23T14:48:15;5.00;;;2.67;;
37425;SDS011;23285;50.180;7.036;2022-10-23T14:51:00;11.63;;;2.93;;
37425;SDS011;23285;50.180;7.036;2022-10-23T14:53:46;5.93;;;2.60;;
37425;SDS011;23285;50.180;7.036;2022-10-23T14:56:32;10.73;;;2.63;;
37425;SDS011;23285;50.180;7.036;2022-10-23T14:59:17;9.40;;;3.03;;
37425;SDS011;23285;50.180;7.036;2022-10-23T15:02:02;7.43;;;3.67;;
37425;SDS011;23285;50.180;7.036;2022-10-23T15:04:48;7.93;;;3.17;;
37425;SDS011;23285;50.180;7.036;2022-10-23T15:07:33;6.70;;;3.30;;
37425;SDS011;23285;50.180;7.036;2022-10-23T15:10:18;9.03;;;4.47;;
37425;SDS011;23285;50.180;7.036;2022-10-23T15:13:03;6.53;;;3.60;;
37425;SDS011;23285;50.180;7.036;2022-10-23T15:15:48;8.80;;;4.10;;
37425;SDS011;23285;50.180;7.036;2022-10-23T15:18:33;10.13;;;3.50;;
37425;SDS011;23285;50.180;7.036;2022-10-23T15:21:19;4.23;;;2.43;;
37425;SDS011;23285;50.180;7.036;2022-10-23T15:24:04;3.23;;;2.00;;
37425;SDS011;23285;50.180;7.036;2022-10-23T15:26:49;11.33;;;3.17;;
37425;SDS011;23285;50.180;7.036;2022-10-23T15:29:35;7.47;;;3.37;;
37425;SDS011;23285;50.180;7.036;2022-10-23T15:32:20;4.07;;;2.90;;
37425;SDS011;23285;50.180;7.036;2022-10-23T15:35:05;9.80;;;4.63;;
37425;SDS011;23285;50.180;7.036;2022-10-23T15:37:50;9.70;;;5.37;;
37425;SDS011;23285;50.180;7.036;2022-10-23T15:40:36;17.17;;;6.20;;
37425;SDS011;23285;50.180;7.036;2022-10-23T15:43:21;8.43;;;5.50;;
37425;SDS011;23285;50.180;7.036;2022-10-23T15:46:06;13.30;;;5.13;;
37425;SDS011;23285;50.180;7.036;2022-10-23T15:48:51;12.97;;;5.50;;
37425;SDS011;23285;50.180;7.036;2022-10-23T15:51:37;7.17;;;3.27;;
37425;SDS011;23285;50.180;7.036;2022-10-23T15:54:23;9.03;;;3.00;;
37425;SDS011;23285;50.180;7.036;2022-10-23T15:57:08;12.77;;;3.50;;
37425;SDS011;23285;50.180;7.036;2022-10-23T15:59:54;6.93;;;3.17;;
37425;SDS011;23285;50.180;7.036;2022-10-23T16:02:39;9.40;;;3.20;;
37425;SDS011;23285;50.180;7.036;2022-10-23T16:05:24;10.27;;;3.37;;
37425;SDS011;23285;50.180;7.036;2022-10-23T16:08:09;11.03;;;3.87;;
37425;SDS011;23285;50.180;7.036;2022-10-23T16:10:54;18.10;;;4.87;;
37425;SDS011;23285;50.180;7.036;2022-10-23T16:13:39;14.03;;;3.87;;
37425;SDS011;23285;50.180;7.036;2022-10-23T16:16:24;11.97;;;3.60;;
37425;SDS011;23285;50.180;7.036;2022-10-23T16:19:11;13.27;;;3.83;;
37425;SDS011;23285;50.180;7.036;2022-10-23T16:21:57;10.70;;;3.70;;
37425;SDS011;23285;50.180;7.036;2022-10-23T16:24:42;9.23;;;3.50;;
37425;SDS011;23285;50.180;7.036;2022-10-23T16:27:27;11.10;;;3.83;;
37425;SDS011;23285;50.180;7.036;2022-10-23T16:30:13;15.47;;;4.20;;
37425;SDS011;23285;50.180;7.036;2022-10-23T16:33:00;22.43;;;5.03;;
37425;SDS011;23285;50.180;7.036;2022-10-23T16:35:45;13.17;;;4.13;;
37425;SDS011;23285;50.180;7.036;2022-10-23T16:38:35;17.57;;;4.57;;
37425;SDS011;23285;50.180;7.036;2022-10-23T16:41:20;17.70;;;5.80;;
37425;SDS011;23285;50.180;7.036;2022-10-23T16:44:18;14.70;;;4.50;;
37425;SDS011;23285;50.180;7.036;2022-10-23T16:47:12;17.20;;;5.20;;
37425;SDS011;23285;50.180;7.036;2022-10-23T16:49:58;21.53;;;4.90;;
37425;SDS011;23285;50.180;7.036;2022-10-23T16:52:43;17.47;;;5.33;;
37425;SDS011;23285;50.180;7.036;2022-10-23T16:55:28;17.33;;;5.67;;
37425;SDS011;23285;50.180;7.036;2022-10-23T16:58:13;23.95;;;7.07;;
37425;SDS011;23285;50.180;7.036;2022-10-23T17:01:00;17.70;;;7.10;;
37425;SDS011;23285;50.180;7.036;2022-10-23T17:03:50;28.67;;;6.93;;
37425;SDS011;23285;50.180;7.036;2022-10-23T17:06:37;15.93;;;4.70;;
37425;SDS011;23285;50.180;7.036;2022-10-23T17:09:22;17.47;;;6.93;;
37425;SDS011;23285;50.180;7.036;2022-10-23T17:12:09;16.03;;;6.23;;
37425;SDS011;23285;50.180;7.036;2022-10-23T17:14:54;14.90;;;6.17;;
37425;SDS011;23285;50.180;7.036;2022-10-23T17:17:39;13.27;;;6.57;;
37425;SDS011;23285;50.180;7.036;2022-10-23T17:20:24;14.13;;;6.00;;
37425;SDS011;23285;50.180;7.036;2022-10-23T17:23:10;14.23;;;5.20;;
37425;SDS011;23285;50.180;7.036;2022-10-23T17:25:55;11.90;;;4.33;;
37425;SDS011;23285;50.180;7.036;2022-10-23T17:28:40;11.30;;;3.60;;
37425;SDS011;23285;50.180;7.036;2022-10-23T17:31:27;10.43;;;3.60;;
37425;SDS011;23285;50.180;7.036;2022-10-23T17:34:16;13.23;;;5.93;;
37425;SDS011;23285;50.180;7.036;2022-10-23T17:37:05;10.13;;;3.97;;
37425;SDS011;23285;50.180;7.036;2022-10-23T17:39:51;12.67;;;3.50;;
37425;SDS011;23285;50.180;7.036;2022-10-23T17:42:36;7.47;;;3.63;;
37425;SDS011;23285;50.180;7.036;2022-10-23T17:45:21;11.47;;;3.37;;
37425;SDS011;23285;50.180;7.036;2022-10-23T17:48:06;8.57;;;2.90;;
37425;SDS011;23285;50.180;7.036;2022-10-23T17:53:51;5.40;;;2.70;;
37425;SDS011;23285;50.180;7.036;2022-10-23T17:56:37;5.83;;;2.40;;
37425;SDS011;23285;50.180;7.036;2022-10-23T17:59:24;7.03;;;3.77;;
37425;SDS011;23285;50.180;7.036;2022-10-23T18:02:10;5.50;;;2.47;;
37425;SDS011;23285;50.180;7.036;2022-10-23T18:04:56;7.70;;;2.63;;
37425;SDS011;23285;50.180;7.036;2022-10-23T18:07:41;7.97;;;2.57;;
37425;SDS011;23285;50.180;7.036;2022-10-23T18:10:26;6.17;;;2.80;;
37425;SDS011;23285;50.180;7.036;2022-10-23T18:13:11;5.13;;;2.60;;
37425;SDS011;23285;50.180;7.036;2022-10-23T18:16:03;5.40;;;2.47;;
37425;SDS011;23285;50.180;7.036;2022-10-23T18:18:49;13.00;;;9.73;;
37425;SDS011;23285;50.180;7.036;2022-10-23T18:21:38;4.93;;;3.33;;
37425;SDS011;23285;50.180;7.036;2022-10-23T18:24:23;4.77;;;2.73;;
37425;SDS011;23285;50.180;7.036;2022-10-23T18:27:09;4.03;;;2.37;;
37425;SDS011;23285;50.180;7.036;2022-10-23T18:29:54;6.30;;;2.50;;
37425;SDS011;23285;50.180;7.036;2022-10-23T18:32:39;8.83;;;2.77;;
37425;SDS011;23285;50.180;7.036;2022-10-23T18:35:24;3.57;;;2.30;;
37425;SDS011;23285;50.180;7.036;2022-10-23T18:38:10;6.73;;;2.30;;
37425;SDS011;23285;50.180;7.036;2022-10-23T18:40:56;6.60;;;2.13;;
37425;SDS011;23285;50.180;7.036;2022-10-23T18:43:41;3.40;;;2.10;;
37425;SDS011;23285;50.180;7.036;2022-10-23T18:46:27;8.03;;;2.53;;
37425;SDS011;23285;50.180;7.036;2022-10-23T18:49:12;3.87;;;2.50;;
37425;SDS011;23285;50.180;7.036;2022-10-23T18:51:58;4.20;;;1.97;;
37425;SDS011;23285;50.180;7.036;2022-10-23T18:54:43;6.27;;;1.97;;
37425;SDS011;23285;50.180;7.036;2022-10-23T18:57:28;7.67;;;2.40;;
37425;SDS011;23285;50.180;7.036;2022-10-23T19:00:13;4.47;;;2.23;;
37425;SDS011;23285;50.180;7.036;2022-10-23T19:02:58;4.87;;;2.23;;